sensor_id;sensor_type;location;lat;lon;timestamp;temperature;humidity
18225;DHT22;9237;48.590;8.854;2023-08-12T00:00:10;18.10;99.90
18225;DHT22;9237;48.590;8.854;2023-08-12T00:02:37;18.10;99.90
18225;DHT22;9237;48.590;8.854;2023-08-12T00:05:05;18.10;99.90
18225;DHT22;9237;48.590;8.854;2023-08-12T00:07:32;17.90;99.90
18225;DHT22;9237;48.590;8.854;2023-08-12T00:10:01;17.90;99.90
18225;DHT22;9237;48.590;8.854;2023-08-12T00:12:29;17.80;99.90
18225;DHT22;9237;48.590;8.854;2023-08-12T00:14:56;17.80;99.90
18225;DHT22;9237;48.590;8.854;2023-08-12T00:17:23;17.90;99.90
18225;DHT22;9237;48.590;8.854;2023-08-12T00:19:50;17.90;99.90
18225;DHT22;9237;48.590;8.854;2023-08-12T00:22:16;17.90;99.90
18225;DHT22;9237;48.590;8.854;2023-08-12T00:24:43;17.90;99.90
18225;DHT22;9237;48.590;8.854;2023-08-12T00:27:12;17.90;99.90
18225;DHT22;9237;48.590;8.854;2023-08-12T00:29:39;17.90;99.90
18225;DHT22;9237;48.590;8.854;2023-08-12T00:32:08;17.90;99.90
18225;DHT22;9237;48.590;8.854;2023-08-12T00:34:34;17.90;99.90
18225;DHT22;9237;48.590;8.854;2023-08-12T00:37:01;17.90;99.90
18225;DHT22;9237;48.590;8.854;2023-08-12T00:39:28;17.80;99.90
18225;DHT22;9237;48.590;8.854;2023-08-12T00:41:55;17.70;99.90
18225;DHT22;9237;48.590;8.854;2023-08-12T00:44:23;17.70;99.90
18225;DHT22;9237;48.590;8.854;2023-08-12T00:46:50;17.70;99.90
18225;DHT22;9237;48.590;8.854;2023-08-12T00:49:17;17.70;99.90
18225;DHT22;9237;48.590;8.854;2023-08-12T00:51:45;17.60;99.90
18225;DHT22;9237;48.590;8.854;2023-08-12T00:54:14;17.50;99.90
18225;DHT22;9237;48.590;8.854;2023-08-12T00:56:41;17.40;99.90
18225;DHT22;9237;48.590;8.854;2023-08-12T00:59:09;17.40;99.90
18225;DHT22;9237;48.590;8.854;2023-08-12T01:01:40;17.50;99.90
18225;DHT22;9237;48.590;8.854;2023-08-12T01:04:07;17.50;99.90
18225;DHT22;9237;48.590;8.854;2023-08-12T01:06:34;17.50;99.90
18225;DHT22;9237;48.590;8.854;2023-08-12T01:09:01;17.50;99.90
18225;DHT22;9237;48.590;8.854;2023-08-12T01:11:40;17.40;99.90
18225;DHT22;9237;48.590;8.854;2023-08-12T01:14:14;17.40;99.90
18225;DHT22;9237;48.590;8.854;2023-08-12T01:16:45;17.40;99.90
18225;DHT22;9237;48.590;8.854;2023-08-12T01:19:21;17.40;99.90
18225;DHT22;9237;48.590;8.854;2023-08-12T01:21:53;17.40;99.90
18225;DHT22;9237;48.590;8.854;2023-08-12T01:24:24;17.30;99.90
18225;DHT22;9237;48.590;8.854;2023-08-12T01:26:51;17.30;99.90
18225;DHT22;9237;48.590;8.854;2023-08-12T01:29:18;17.30;99.90
18225;DHT22;9237;48.590;8.854;2023-08-12T01:31:50;17.30;99.90
18225;DHT22;9237;48.590;8.854;2023-08-12T01:34:23;17.30;99.90
18225;DHT22;9237;48.590;8.854;2023-08-12T01:36:55;17.40;99.90
18225;DHT22;9237;48.590;8.854;2023-08-12T01:39:23;17.30;99.90
18225;DHT22;9237;48.590;8.854;2023-08-12T01:41:51;17.30;99.90
18225;DHT22;9237;48.590;8.854;2023-08-12T01:44:19;17.30;99.90
18225;DHT22;9237;48.590;8.854;2023-08-12T01:46:46;17.30;99.90
18225;DHT22;9237;48.590;8.854;2023-08-12T01:49:13;17.30;99.90
18225;DHT22;9237;48.590;8.854;2023-08-12T01:51:40;17.30;99.90
18225;DHT22;9237;48.590;8.854;2023-08-12T01:54:06;17.40;99.90
18225;DHT22;9237;48.590;8.854;2023-08-12T01:56:34;17.40;99.90
18225;DHT22;9237;48.590;8.854;2023-08-12T01:59:01;17.30;99.90
18225;DHT22;9237;48.590;8.854;2023-08-12T02:01:28;17.40;99.90
18225;DHT22;9237;48.590;8.854;2023-08-12T02:03:55;17.40;99.90
18225;DHT22;9237;48.590;8.854;2023-08-12T02:06:21;17.40;99.90
18225;DHT22;9237;48.590;8.854;2023-08-12T02:08:48;17.50;99.90
18225;DHT22;9237;48.590;8.854;2023-08-12T02:11:16;17.50;99.90
18225;DHT22;9237;48.590;8.854;2023-08-12T02:13:44;17.50;99.90
18225;DHT22;9237;48.590;8.854;2023-08-12T02:16:11;17.50;99.90
18225;DHT22;9237;48.590;8.854;2023-08-12T02:18:37;17.50;99.90
18225;DHT22;9237;48.590;8.854;2023-08-12T02:21:04;17.50;99.90
18225;DHT22;9237;48.590;8.854;2023-08-12T02:23:31;17.40;99.90
18225;DHT22;9237;48.590;8.854;2023-08-12T02:25:57;17.40;99.90
18225;DHT22;9237;48.590;8.854;2023-08-12T02:28:25;17.40;99.90
18225;DHT22;9237;48.590;8.854;2023-08-12T02:30:54;17.40;99.90
18225;DHT22;9237;48.590;8.854;2023-08-12T02:33:20;17.40;99.90
18225;DHT22;9237;48.590;8.854;2023-08-12T02:35:47;17.40;99.90
18225;DHT22;9237;48.590;8.854;2023-08-12T02:38:14;17.40;99.90
18225;DHT22;9237;48.590;8.854;2023-08-12T02:40:40;17.40;99.90
18225;DHT22;9237;48.590;8.854;2023-08-12T02:43:07;17.50;99.90
18225;DHT22;9237;48.590;8.854;2023-08-12T02:45:35;17.50;99.90
18225;DHT22;9237;48.590;8.854;2023-08-12T02:48:05;17.40;99.90
18225;DHT22;9237;48.590;8.854;2023-08-12T02:50:31;17.40;99.90
18225;DHT22;9237;48.590;8.854;2023-08-12T02:52:58;17.40;99.90
18225;DHT22;9237;48.590;8.854;2023-08-12T02:55:25;17.30;99.90
18225;DHT22;9237;48.590;8.854;2023-08-12T02:57:52;17.40;99.90
18225;DHT22;9237;48.590;8.854;2023-08-12T03:00:19;17.40;99.90
18225;DHT22;9237;48.590;8.854;2023-08-12T03:02:45;17.40;99.90
18225;DHT22;9237;48.590;8.854;2023-08-12T03:05:14;17.40;99.90
18225;DHT22;9237;48.590;8.854;2023-08-12T03:07:40;17.40;99.90
18225;DHT22;9237;48.590;8.854;2023-08-12T03:10:08;17.40;99.90
18225;DHT22;9237;48.590;8.854;2023-08-12T03:12:35;17.40;99.90
18225;DHT22;9237;48.590;8.854;2023-08-12T03:15:02;17.40;99.90
18225;DHT22;9237;48.590;8.854;2023-08-12T03:17:29;17.40;99.90
18225;DHT22;9237;48.590;8.854;2023-08-12T03:19:57;17.40;99.90
18225;DHT22;9237;48.590;8.854;2023-08-12T03:22:26;17.30;99.90
18225;DHT22;9237;48.590;8.854;2023-08-12T03:24:53;17.40;99.90
18225;DHT22;9237;48.590;8.854;2023-08-12T03:27:20;17.30;99.90
18225;DHT22;9237;48.590;8.854;2023-08-12T03:29:47;17.30;99.90
18225;DHT22;9237;48.590;8.854;2023-08-12T03:32:14;17.30;99.90
18225;DHT22;9237;48.590;8.854;2023-08-12T03:34:40;17.30;99.90
18225;DHT22;9237;48.590;8.854;2023-08-12T03:37:07;17.30;99.90
18225;DHT22;9237;48.590;8.854;2023-08-12T03:39:35;17.30;99.90
18225;DHT22;9237;48.590;8.854;2023-08-12T03:42:02;17.30;99.90
18225;DHT22;9237;48.590;8.854;2023-08-12T03:44:29;17.30;99.90
18225;DHT22;9237;48.590;8.854;2023-08-12T03:46:56;17.30;99.90
18225;DHT22;9237;48.590;8.854;2023-08-12T03:49:22;17.40;99.90
18225;DHT22;9237;48.590;8.854;2023-08-12T03:51:49;17.40;99.90
18225;DHT22;9237;48.590;8.854;2023-08-12T03:54:16;17.40;99.90
18225;DHT22;9237;48.590;8.854;2023-08-12T03:56:44;17.40;99.90
18225;DHT22;9237;48.590;8.854;2023-08-12T03:59:11;17.40;99.90
18225;DHT22;9237;48.590;8.854;2023-08-12T04:01:38;17.40;99.90
18225;DHT22;9237;48.590;8.854;2023-08-12T04:04:05;17.40;99.90
18225;DHT22;9237;48.590;8.854;2023-08-12T04:06:32;17.30;99.90
18225;DHT22;9237;48.590;8.854;2023-08-12T04:08:58;17.40;99.90
18225;DHT22;9237;48.590;8.854;2023-08-12T04:11:25;17.30;99.90
18225;DHT22;9237;48.590;8.854;2023-08-12T04:13:53;17.40;99.90
18225;DHT22;9237;48.590;8.854;2023-08-12T04:16:20;17.30;99.90
18225;DHT22;9237;48.590;8.854;2023-08-12T04:18:47;17.40;99.90
18225;DHT22;9237;48.590;8.854;2023-08-12T04:21:14;17.40;99.90
18225;DHT22;9237;48.590;8.854;2023-08-12T04:23:41;17.50;99.90
18225;DHT22;9237;48.590;8.854;2023-08-12T04:26:07;17.60;99.90
18225;DHT22;9237;48.590;8.854;2023-08-12T04:28:34;17.50;99.90
18225;DHT22;9237;48.590;8.854;2023-08-12T04:31:06;17.50;99.90
18225;DHT22;9237;48.590;8.854;2023-08-12T04:33:33;17.50;99.90
18225;DHT22;9237;48.590;8.854;2023-08-12T04:36:00;17.50;99.90
18225;DHT22;9237;48.590;8.854;2023-08-12T04:38:26;17.50;99.90
18225;DHT22;9237;48.590;8.854;2023-08-12T04:40:54;17.60;99.90
18225;DHT22;9237;48.590;8.854;2023-08-12T04:43:20;17.60;99.90
18225;DHT22;9237;48.590;8.854;2023-08-12T04:45:47;17.60;99.90
18225;DHT22;9237;48.590;8.854;2023-08-12T04:48:16;17.60;99.90
18225;DHT22;9237;48.590;8.854;2023-08-12T04:50:42;17.60;99.90
18225;DHT22;9237;48.590;8.854;2023-08-12T04:53:09;17.70;99.90
18225;DHT22;9237;48.590;8.854;2023-08-12T04:55:36;17.70;99.90
18225;DHT22;9237;48.590;8.854;2023-08-12T04:58:04;17.60;99.90
18225;DHT22;9237;48.590;8.854;2023-08-12T05:00:31;17.70;99.90
18225;DHT22;9237;48.590;8.854;2023-08-12T05:02:58;17.70;99.90
18225;DHT22;9237;48.590;8.854;2023-08-12T05:05:27;17.70;99.90
18225;DHT22;9237;48.590;8.854;2023-08-12T05:07:53;17.70;99.90
18225;DHT22;9237;48.590;8.854;2023-08-12T05:10:20;17.70;99.90
18225;DHT22;9237;48.590;8.854;2023-08-12T05:12:47;17.80;99.90
18225;DHT22;9237;48.590;8.854;2023-08-12T05:15:15;17.90;99.90
18225;DHT22;9237;48.590;8.854;2023-08-12T05:17:42;17.90;99.90
18225;DHT22;9237;48.590;8.854;2023-08-12T05:20:09;18.00;99.90
18225;DHT22;9237;48.590;8.854;2023-08-12T05:22:38;18.00;99.90
18225;DHT22;9237;48.590;8.854;2023-08-12T05:25:05;18.10;99.90
18225;DHT22;9237;48.590;8.854;2023-08-12T05:27:33;18.10;99.90
18225;DHT22;9237;48.590;8.854;2023-08-12T05:30:00;18.20;99.90
18225;DHT22;9237;48.590;8.854;2023-08-12T05:32:26;18.20;99.90
18225;DHT22;9237;48.590;8.854;2023-08-12T05:34:54;18.20;99.90
18225;DHT22;9237;48.590;8.854;2023-08-12T05:37:21;18.20;99.90
18225;DHT22;9237;48.590;8.854;2023-08-12T05:39:49;18.20;99.90
18225;DHT22;9237;48.590;8.854;2023-08-12T05:42:16;18.20;99.90
18225;DHT22;9237;48.590;8.854;2023-08-12T05:44:43;18.30;99.90
18225;DHT22;9237;48.590;8.854;2023-08-12T05:47:10;18.40;99.90
18225;DHT22;9237;48.590;8.854;2023-08-12T05:49:37;18.50;99.90
18225;DHT22;9237;48.590;8.854;2023-08-12T05:52:04;18.60;99.90
18225;DHT22;9237;48.590;8.854;2023-08-12T05:54:31;18.70;99.90
18225;DHT22;9237;48.590;8.854;2023-08-12T05:56:59;18.90;99.90
18225;DHT22;9237;48.590;8.854;2023-08-12T05:59:26;19.00;99.90
18225;DHT22;9237;48.590;8.854;2023-08-12T06:01:53;19.20;99.90
18225;DHT22;9237;48.590;8.854;2023-08-12T06:04:20;19.40;99.90
18225;DHT22;9237;48.590;8.854;2023-08-12T06:06:47;19.50;99.90
18225;DHT22;9237;48.590;8.854;2023-08-12T06:09:14;19.60;99.90
18225;DHT22;9237;48.590;8.854;2023-08-12T06:11:41;19.70;99.90
18225;DHT22;9237;48.590;8.854;2023-08-12T06:14:09;19.80;99.90
18225;DHT22;9237;48.590;8.854;2023-08-12T06:16:36;19.80;99.90
18225;DHT22;9237;48.590;8.854;2023-08-12T06:19:03;19.80;99.90
18225;DHT22;9237;48.590;8.854;2023-08-12T06:21:30;20.00;99.90
18225;DHT22;9237;48.590;8.854;2023-08-12T06:23:57;20.20;99.90
18225;DHT22;9237;48.590;8.854;2023-08-12T06:26:24;20.30;99.90
18225;DHT22;9237;48.590;8.854;2023-08-12T06:28:50;20.40;99.90
18225;DHT22;9237;48.590;8.854;2023-08-12T06:31:18;20.70;99.90
18225;DHT22;9237;48.590;8.854;2023-08-12T06:33:45;20.70;99.90
18225;DHT22;9237;48.590;8.854;2023-08-12T06:36:12;20.80;99.90
18225;DHT22;9237;48.590;8.854;2023-08-12T06:38:39;20.90;99.90
18225;DHT22;9237;48.590;8.854;2023-08-12T06:41:05;21.00;99.90
18225;DHT22;9237;48.590;8.854;2023-08-12T06:43:32;21.10;99.90
18225;DHT22;9237;48.590;8.854;2023-08-12T06:45:59;21.40;99.90
18225;DHT22;9237;48.590;8.854;2023-08-12T06:48:28;21.70;99.90
18225;DHT22;9237;48.590;8.854;2023-08-12T06:50:55;21.90;99.90
18225;DHT22;9237;48.590;8.854;2023-08-12T06:53:22;22.50;99.90
18225;DHT22;9237;48.590;8.854;2023-08-12T06:55:49;22.90;99.90
18225;DHT22;9237;48.590;8.854;2023-08-12T06:58:16;23.20;99.90
18225;DHT22;9237;48.590;8.854;2023-08-12T07:00:42;23.50;99.90
18225;DHT22;9237;48.590;8.854;2023-08-12T07:03:09;23.30;99.90
18225;DHT22;9237;48.590;8.854;2023-08-12T07:05:37;23.40;99.90
18225;DHT22;9237;48.590;8.854;2023-08-12T07:08:05;23.60;99.90
18225;DHT22;9237;48.590;8.854;2023-08-12T07:10:31;24.10;99.90
18225;DHT22;9237;48.590;8.854;2023-08-12T07:12:58;24.60;99.90
18225;DHT22;9237;48.590;8.854;2023-08-12T07:15:25;24.90;99.90
18225;DHT22;9237;48.590;8.854;2023-08-12T07:17:52;25.30;99.90
18225;DHT22;9237;48.590;8.854;2023-08-12T07:20:18;25.50;99.90
18225;DHT22;9237;48.590;8.854;2023-08-12T07:22:46;24.70;99.90
18225;DHT22;9237;48.590;8.854;2023-08-12T07:25:13;24.40;99.90
18225;DHT22;9237;48.590;8.854;2023-08-12T07:27:40;24.40;99.90
18225;DHT22;9237;48.590;8.854;2023-08-12T07:30:08;24.40;99.90
18225;DHT22;9237;48.590;8.854;2023-08-12T07:32:36;24.20;99.90
18225;DHT22;9237;48.590;8.854;2023-08-12T07:35:03;24.50;99.90
18225;DHT22;9237;48.590;8.854;2023-08-12T07:37:31;25.10;99.90
18225;DHT22;9237;48.590;8.854;2023-08-12T07:39:59;25.20;99.90
18225;DHT22;9237;48.590;8.854;2023-08-12T07:42:26;25.70;99.90
18225;DHT22;9237;48.590;8.854;2023-08-12T07:44:53;26.20;99.90
18225;DHT22;9237;48.590;8.854;2023-08-12T07:47:19;26.60;99.90
18225;DHT22;9237;48.590;8.854;2023-08-12T07:49:46;27.30;99.90
18225;DHT22;9237;48.590;8.854;2023-08-12T07:52:13;27.60;99.90
18225;DHT22;9237;48.590;8.854;2023-08-12T07:54:40;27.70;99.90
18225;DHT22;9237;48.590;8.854;2023-08-12T07:57:08;27.50;99.90
18225;DHT22;9237;48.590;8.854;2023-08-12T07:59:36;27.30;99.90
18225;DHT22;9237;48.590;8.854;2023-08-12T08:02:12;27.40;99.90
18225;DHT22;9237;48.590;8.854;2023-08-12T08:04:38;27.70;99.90
18225;DHT22;9237;48.590;8.854;2023-08-12T08:07:05;27.90;99.90
18225;DHT22;9237;48.590;8.854;2023-08-12T08:09:32;28.70;99.90
18225;DHT22;9237;48.590;8.854;2023-08-12T08:11:59;29.60;99.90
18225;DHT22;9237;48.590;8.854;2023-08-12T08:14:27;29.90;99.90
18225;DHT22;9237;48.590;8.854;2023-08-12T08:16:54;30.30;99.90
18225;DHT22;9237;48.590;8.854;2023-08-12T08:19:21;30.70;99.90
18225;DHT22;9237;48.590;8.854;2023-08-12T08:21:47;31.00;99.90
18225;DHT22;9237;48.590;8.854;2023-08-12T08:24:14;30.50;99.90
18225;DHT22;9237;48.590;8.854;2023-08-12T08:26:41;30.80;99.90
18225;DHT22;9237;48.590;8.854;2023-08-12T08:29:08;30.80;99.90
18225;DHT22;9237;48.590;8.854;2023-08-12T08:31:36;30.60;99.90
18225;DHT22;9237;48.590;8.854;2023-08-12T08:34:03;30.40;99.40
18225;DHT22;9237;48.590;8.854;2023-08-12T08:36:30;29.90;99.10
18225;DHT22;9237;48.590;8.854;2023-08-12T08:38:56;30.30;99.10
18225;DHT22;9237;48.590;8.854;2023-08-12T08:41:24;30.90;97.90
18225;DHT22;9237;48.590;8.854;2023-08-12T08:43:53;31.50;96.70
18225;DHT22;9237;48.590;8.854;2023-08-12T08:46:21;32.00;94.80
18225;DHT22;9237;48.590;8.854;2023-08-12T08:48:51;32.30;95.00
18225;DHT22;9237;48.590;8.854;2023-08-12T08:51:18;32.30;93.80
18225;DHT22;9237;48.590;8.854;2023-08-12T08:53:45;32.60;93.50
18225;DHT22;9237;48.590;8.854;2023-08-12T08:56:13;32.30;93.20
18225;DHT22;9237;48.590;8.854;2023-08-12T08:58:40;32.80;91.90
18225;DHT22;9237;48.590;8.854;2023-08-12T09:01:07;33.60;90.60
18225;DHT22;9237;48.590;8.854;2023-08-12T09:03:35;33.40;90.00
18225;DHT22;9237;48.590;8.854;2023-08-12T09:06:06;32.70;88.40
18225;DHT22;9237;48.590;8.854;2023-08-12T09:08:33;32.00;88.20
18225;DHT22;9237;48.590;8.854;2023-08-12T09:11:00;31.50;89.60
18225;DHT22;9237;48.590;8.854;2023-08-12T09:13:28;31.30;90.60
18225;DHT22;9237;48.590;8.854;2023-08-12T09:15:55;31.50;90.60
18225;DHT22;9237;48.590;8.854;2023-08-12T09:18:22;31.60;89.10
18225;DHT22;9237;48.590;8.854;2023-08-12T09:20:49;32.30;88.80
18225;DHT22;9237;48.590;8.854;2023-08-12T09:23:17;31.90;85.00
18225;DHT22;9237;48.590;8.854;2023-08-12T09:25:45;31.30;86.90
18225;DHT22;9237;48.590;8.854;2023-08-12T09:28:12;31.60;87.00
18225;DHT22;9237;48.590;8.854;2023-08-12T09:30:40;31.20;84.00
18225;DHT22;9237;48.590;8.854;2023-08-12T09:33:08;31.00;85.90
18225;DHT22;9237;48.590;8.854;2023-08-12T09:35:37;30.80;86.20
18225;DHT22;9237;48.590;8.854;2023-08-12T09:38:06;30.60;86.40
18225;DHT22;9237;48.590;8.854;2023-08-12T09:40:35;30.10;86.70
18225;DHT22;9237;48.590;8.854;2023-08-12T09:43:02;29.50;86.80
18225;DHT22;9237;48.590;8.854;2023-08-12T09:45:30;29.20;89.40
18225;DHT22;9237;48.590;8.854;2023-08-12T09:47:58;28.80;90.50
18225;DHT22;9237;48.590;8.854;2023-08-12T09:50:25;28.70;90.40
18225;DHT22;9237;48.590;8.854;2023-08-12T09:52:53;28.60;90.40
18225;DHT22;9237;48.590;8.854;2023-08-12T09:55:22;28.80;90.40
18225;DHT22;9237;48.590;8.854;2023-08-12T09:57:51;28.70;90.50
18225;DHT22;9237;48.590;8.854;2023-08-12T10:00:19;28.50;90.00
18225;DHT22;9237;48.590;8.854;2023-08-12T10:02:47;28.50;90.30
18225;DHT22;9237;48.590;8.854;2023-08-12T10:05:19;28.40;90.00
18225;DHT22;9237;48.590;8.854;2023-08-12T10:07:48;28.40;90.60
18225;DHT22;9237;48.590;8.854;2023-08-12T10:10:15;28.40;90.70
18225;DHT22;9237;48.590;8.854;2023-08-12T10:12:42;28.60;90.30
18225;DHT22;9237;48.590;8.854;2023-08-12T10:15:11;29.10;90.50
18225;DHT22;9237;48.590;8.854;2023-08-12T10:17:38;29.40;88.90
18225;DHT22;9237;48.590;8.854;2023-08-12T10:20:08;29.50;89.60
18225;DHT22;9237;48.590;8.854;2023-08-12T10:22:36;29.50;88.90
18225;DHT22;9237;48.590;8.854;2023-08-12T10:25:03;29.70;88.80
18225;DHT22;9237;48.590;8.854;2023-08-12T10:27:30;29.70;89.20
18225;DHT22;9237;48.590;8.854;2023-08-12T10:29:57;30.20;89.20
18225;DHT22;9237;48.590;8.854;2023-08-12T10:32:25;31.40;87.50
18225;DHT22;9237;48.590;8.854;2023-08-12T10:34:56;32.30;81.50
18225;DHT22;9237;48.590;8.854;2023-08-12T10:37:24;33.00;79.90
18225;DHT22;9237;48.590;8.854;2023-08-12T10:39:52;33.30;78.70
18225;DHT22;9237;48.590;8.854;2023-08-12T10:42:40;33.30;76.20
18225;DHT22;9237;48.590;8.854;2023-08-12T10:45:08;33.10;76.40
18225;DHT22;9237;48.590;8.854;2023-08-12T10:47:40;32.70;78.80
18225;DHT22;9237;48.590;8.854;2023-08-12T10:50:16;32.50;79.50
18225;DHT22;9237;48.590;8.854;2023-08-12T10:52:43;32.70;76.20
18225;DHT22;9237;48.590;8.854;2023-08-12T10:55:18;32.20;77.20
18225;DHT22;9237;48.590;8.854;2023-08-12T10:57:46;31.80;79.60
18225;DHT22;9237;48.590;8.854;2023-08-12T11:00:14;31.40;78.70
18225;DHT22;9237;48.590;8.854;2023-08-12T11:02:45;31.10;80.40
18225;DHT22;9237;48.590;8.854;2023-08-12T11:05:13;31.00;80.60
18225;DHT22;9237;48.590;8.854;2023-08-12T11:07:41;31.10;81.90
18225;DHT22;9237;48.590;8.854;2023-08-12T11:10:14;31.30;80.70
18225;DHT22;9237;48.590;8.854;2023-08-12T11:12:47;31.10;80.10
18225;DHT22;9237;48.590;8.854;2023-08-12T11:15:13;31.10;82.80
18225;DHT22;9237;48.590;8.854;2023-08-12T11:17:41;32.00;80.30
18225;DHT22;9237;48.590;8.854;2023-08-12T11:20:11;31.70;79.60
18225;DHT22;9237;48.590;8.854;2023-08-12T11:22:39;31.30;80.60
18225;DHT22;9237;48.590;8.854;2023-08-12T11:25:07;30.90;81.60
18225;DHT22;9237;48.590;8.854;2023-08-12T11:27:39;31.10;81.50
18225;DHT22;9237;48.590;8.854;2023-08-12T11:30:08;31.30;80.70
18225;DHT22;9237;48.590;8.854;2023-08-12T11:32:36;31.30;80.30
18225;DHT22;9237;48.590;8.854;2023-08-12T11:35:04;31.30;81.50
18225;DHT22;9237;48.590;8.854;2023-08-12T11:37:35;31.00;78.80
18225;DHT22;9237;48.590;8.854;2023-08-12T11:40:02;30.70;78.40
18225;DHT22;9237;48.590;8.854;2023-08-12T11:42:29;30.40;80.40
18225;DHT22;9237;48.590;8.854;2023-08-12T11:44:56;30.00;77.90
18225;DHT22;9237;48.590;8.854;2023-08-12T11:47:23;29.70;79.60
18225;DHT22;9237;48.590;8.854;2023-08-12T11:49:52;29.50;80.30
18225;DHT22;9237;48.590;8.854;2023-08-12T11:52:19;29.50;80.10
18225;DHT22;9237;48.590;8.854;2023-08-12T11:54:48;29.70;78.10
18225;DHT22;9237;48.590;8.854;2023-08-12T11:57:15;29.50;78.20
18225;DHT22;9237;48.590;8.854;2023-08-12T11:59:42;29.20;79.80
18225;DHT22;9237;48.590;8.854;2023-08-12T12:02:10;28.60;82.20
18225;DHT22;9237;48.590;8.854;2023-08-12T12:04:37;28.50;82.30
18225;DHT22;9237;48.590;8.854;2023-08-12T12:07:17;28.30;83.10
18225;DHT22;9237;48.590;8.854;2023-08-12T12:09:44;28.10;84.10
18225;DHT22;9237;48.590;8.854;2023-08-12T12:12:12;27.20;88.60
18225;DHT22;9237;48.590;8.854;2023-08-12T12:14:39;26.20;91.20
18225;DHT22;9237;48.590;8.854;2023-08-12T12:17:07;25.80;92.80
18225;DHT22;9237;48.590;8.854;2023-08-12T12:19:35;25.40;94.50
18225;DHT22;9237;48.590;8.854;2023-08-12T12:22:03;25.20;94.90
18225;DHT22;9237;48.590;8.854;2023-08-12T12:24:43;25.20;94.60
18225;DHT22;9237;48.590;8.854;2023-08-12T12:27:12;25.00;96.30
18225;DHT22;9237;48.590;8.854;2023-08-12T12:29:39;24.50;98.20
18225;DHT22;9237;48.590;8.854;2023-08-12T12:32:06;24.40;98.20
18225;DHT22;9237;48.590;8.854;2023-08-12T12:34:33;24.50;98.70
18225;DHT22;9237;48.590;8.854;2023-08-12T12:36:59;24.70;98.00
18225;DHT22;9237;48.590;8.854;2023-08-12T12:39:26;24.80;98.10
18225;DHT22;9237;48.590;8.854;2023-08-12T12:41:53;24.80;98.30
18225;DHT22;9237;48.590;8.854;2023-08-12T12:44:21;24.90;98.40
18225;DHT22;9237;48.590;8.854;2023-08-12T12:46:48;24.90;98.60
18225;DHT22;9237;48.590;8.854;2023-08-12T12:49:15;24.70;97.10
18225;DHT22;9237;48.590;8.854;2023-08-12T12:51:41;24.50;97.60
18225;DHT22;9237;48.590;8.854;2023-08-12T12:54:08;24.50;97.90
18225;DHT22;9237;48.590;8.854;2023-08-12T12:56:35;24.50;98.90
18225;DHT22;9237;48.590;8.854;2023-08-12T12:59:02;24.30;99.90
18225;DHT22;9237;48.590;8.854;2023-08-12T13:01:30;24.20;99.90
18225;DHT22;9237;48.590;8.854;2023-08-12T13:03:57;24.20;99.90
18225;DHT22;9237;48.590;8.854;2023-08-12T13:06:24;24.30;99.90
18225;DHT22;9237;48.590;8.854;2023-08-12T13:08:50;24.30;99.90
18225;DHT22;9237;48.590;8.854;2023-08-12T13:11:17;24.50;99.90
18225;DHT22;9237;48.590;8.854;2023-08-12T13:13:44;24.70;99.90
18225;DHT22;9237;48.590;8.854;2023-08-12T13:16:11;25.00;99.90
18225;DHT22;9237;48.590;8.854;2023-08-12T13:18:39;25.40;99.90
18225;DHT22;9237;48.590;8.854;2023-08-12T13:21:06;25.80;99.90
18225;DHT22;9237;48.590;8.854;2023-08-12T13:23:32;26.30;99.90
18225;DHT22;9237;48.590;8.854;2023-08-12T13:25:59;28.30;97.90
18225;DHT22;9237;48.590;8.854;2023-08-12T13:28:26;30.60;93.40
18225;DHT22;9237;48.590;8.854;2023-08-12T13:30:53;32.10;90.20
18225;DHT22;9237;48.590;8.854;2023-08-12T13:33:19;33.30;85.50
18225;DHT22;9237;48.590;8.854;2023-08-12T13:35:48;33.70;80.90
18225;DHT22;9237;48.590;8.854;2023-08-12T13:38:14;33.80;78.50
18225;DHT22;9237;48.590;8.854;2023-08-12T13:40:42;32.90;78.80
18225;DHT22;9237;48.590;8.854;2023-08-12T13:43:09;31.90;82.10
18225;DHT22;9237;48.590;8.854;2023-08-12T13:45:35;31.20;82.60
18225;DHT22;9237;48.590;8.854;2023-08-12T13:48:03;30.80;84.60
18225;DHT22;9237;48.590;8.854;2023-08-12T13:50:30;31.00;84.30
18225;DHT22;9237;48.590;8.854;2023-08-12T13:52:59;31.70;79.40
18225;DHT22;9237;48.590;8.854;2023-08-12T13:55:26;33.00;77.20
18225;DHT22;9237;48.590;8.854;2023-08-12T13:57:53;33.60;73.20
18225;DHT22;9237;48.590;8.854;2023-08-12T14:00:20;33.30;72.80
18225;DHT22;9237;48.590;8.854;2023-08-12T14:02:47;33.90;76.00
18225;DHT22;9237;48.590;8.854;2023-08-12T14:05:14;34.60;70.70
18225;DHT22;9237;48.590;8.854;2023-08-12T14:07:41;35.30;68.20
18225;DHT22;9237;48.590;8.854;2023-08-12T14:10:10;35.90;66.30
18225;DHT22;9237;48.590;8.854;2023-08-12T14:12:36;35.50;63.70
18225;DHT22;9237;48.590;8.854;2023-08-12T14:15:04;34.50;66.80
18225;DHT22;9237;48.590;8.854;2023-08-12T14:17:31;34.60;66.10
18225;DHT22;9237;48.590;8.854;2023-08-12T14:19:58;34.60;69.10
18225;DHT22;9237;48.590;8.854;2023-08-12T14:22:25;34.60;67.70
18225;DHT22;9237;48.590;8.854;2023-08-12T14:24:52;34.50;68.40
18225;DHT22;9237;48.590;8.854;2023-08-12T14:27:20;33.70;69.20
18225;DHT22;9237;48.590;8.854;2023-08-12T14:29:46;34.40;70.00
18225;DHT22;9237;48.590;8.854;2023-08-12T14:32:13;34.50;69.00
18225;DHT22;9237;48.590;8.854;2023-08-12T14:34:42;34.40;68.30
18225;DHT22;9237;48.590;8.854;2023-08-12T14:37:10;32.70;73.00
18225;DHT22;9237;48.590;8.854;2023-08-12T14:39:37;33.60;72.10
18225;DHT22;9237;48.590;8.854;2023-08-12T14:42:05;33.60;68.40
18225;DHT22;9237;48.590;8.854;2023-08-12T14:44:35;34.10;69.00
18225;DHT22;9237;48.590;8.854;2023-08-12T14:47:01;34.20;68.20
18225;DHT22;9237;48.590;8.854;2023-08-12T14:49:29;34.50;68.50
18225;DHT22;9237;48.590;8.854;2023-08-12T14:51:55;34.80;67.10
18225;DHT22;9237;48.590;8.854;2023-08-12T14:54:22;35.10;66.60
18225;DHT22;9237;48.590;8.854;2023-08-12T14:56:49;34.20;68.10
18225;DHT22;9237;48.590;8.854;2023-08-12T14:59:16;33.90;69.90
18225;DHT22;9237;48.590;8.854;2023-08-12T15:01:44;34.70;68.70
18225;DHT22;9237;48.590;8.854;2023-08-12T15:04:11;35.20;66.70
18225;DHT22;9237;48.590;8.854;2023-08-12T15:06:37;34.70;67.70
18225;DHT22;9237;48.590;8.854;2023-08-12T15:09:05;34.70;67.60
18225;DHT22;9237;48.590;8.854;2023-08-12T15:11:31;34.60;68.10
18225;DHT22;9237;48.590;8.854;2023-08-12T15:13:58;35.10;67.80
18225;DHT22;9237;48.590;8.854;2023-08-12T15:16:25;34.90;67.70
18225;DHT22;9237;48.590;8.854;2023-08-12T15:18:54;34.50;68.30
18225;DHT22;9237;48.590;8.854;2023-08-12T15:21:20;33.30;72.70
18225;DHT22;9237;48.590;8.854;2023-08-12T15:23:47;32.00;75.40
18225;DHT22;9237;48.590;8.854;2023-08-12T15:26:14;30.60;80.00
18225;DHT22;9237;48.590;8.854;2023-08-12T15:28:41;29.90;82.00
18225;DHT22;9237;48.590;8.854;2023-08-12T15:31:07;29.30;85.50
18225;DHT22;9237;48.590;8.854;2023-08-12T15:33:34;28.90;86.20
18225;DHT22;9237;48.590;8.854;2023-08-12T15:36:03;28.80;86.50
18225;DHT22;9237;48.590;8.854;2023-08-12T15:38:30;28.70;84.50
18225;DHT22;9237;48.590;8.854;2023-08-12T15:40:57;28.30;85.70
18225;DHT22;9237;48.590;8.854;2023-08-12T15:43:24;28.10;88.60
18225;DHT22;9237;48.590;8.854;2023-08-12T15:45:50;27.90;89.40